aviador You're here:

PWAK Decoded Metar

WAKE ISLAND AIRF in _UNIDENTIFIED
Report Time2018-05-20 22:58:00
UTC Time2018-05-20 23:19:52
Flight Rules vfr VFR
Wind090° at 12 kt
W.Decomp.*RWY 10: 11.5 kt HW 3.5 kt LCW
W.Rank090° ranks 4
Current wind is above 090° avg. (11.3)
Visibility9999 m
Phenomena:N/A
Clouds:Scattered 017 Hf
Scattered 270 Hf
Expected CloudBase > 2,400 ft AGL from Temp-Dew spread
CeilingNone
Temp29°C (ISA +14)
Dew Point23°C (70% RH)
Heat Index32.7°C
QNH1016 hPa
Density Alt1,893 ft
Elevation13 ft
Report Wrong Elevation
Raw Report
PWAK 202258Z AUTO 09012KT 9999 SCT017 SCT270 29/23 A3001 RMK AO2
SLP169=

Extra information for PWAK:More info

Metar Taf Metar & Taf Last 4 Metars F.Rules Stats Wind Profile Meteogram Temp Stats Airport Information Weather charts Add Link Nearby VenuesMetar ALERT Operation Metar Decoded Social comments